createdAt,value
2019-03-03T00:04:38.877Z,6.94
2019-03-03T00:09:41.739Z,6.96
2019-03-03T00:14:44.990Z,6.95
2019-03-03T00:19:47.907Z,7.08
2019-03-03T00:24:51.472Z,6.98
2019-03-03T00:29:54.742Z,7.05
2019-03-03T00:34:58.338Z,7.16
2019-03-03T00:40:19.535Z,7.09
2019-03-03T00:45:44.738Z,7.18
2019-03-03T00:50:58.053Z,7.12
2019-03-03T00:56:12.222Z,7.25
2019-03-03T01:01:26.793Z,7.19
2019-03-03T01:06:44.445Z,7.34
2019-03-03T01:12:07.102Z,7.45
2019-03-03T01:17:29.562Z,7.55
2019-03-03T01:22:43.113Z,7.53
2019-03-03T01:27:46.324Z,7.55
2019-03-03T01:32:49.224Z,7.61
2019-03-03T01:37:52.715Z,7.65
2019-03-03T01:42:55.640Z,7.89
2019-03-03T01:47:58.546Z,7.93
2019-03-03T01:53:01.416Z,8.19
2019-03-03T01:58:04.660Z,8.40
2019-03-03T02:03:08.109Z,8.52
2019-03-03T02:08:11.287Z,8.53
2019-03-03T02:13:14.394Z,8.64
2019-03-03T02:18:19.544Z,8.67
2019-03-03T02:23:22.166Z,8.64
2019-03-03T02:28:25.696Z,8.62
2019-03-03T02:33:29.202Z,8.61
2019-03-03T02:38:32.430Z,8.65
2019-03-03T02:43:39.063Z,8.56
2019-03-03T02:48:41.979Z,8.55
2019-03-03T02:53:45.785Z,8.54
2019-03-03T02:58:48.412Z,8.55
2019-03-03T03:03:51.946Z,8.52
2019-03-03T03:09:13.350Z,8.55
2019-03-03T03:14:41.719Z,8.62
2019-03-03T03:20:12.307Z,8.61
2019-03-03T03:25:34.769Z,8.72
2019-03-03T03:31:15.137Z,8.69
2019-03-03T03:36:37.228Z,8.81
2019-03-03T03:42:02.847Z,8.83
2019-03-03T03:47:15.259Z,8.80
2019-03-03T03:52:49.205Z,8.90
2019-03-03T03:58:10.531Z,8.97
2019-03-03T04:03:31.091Z,8.99
2019-03-03T04:09:02.722Z,8.99
2019-03-03T04:14:17.378Z,8.84
2019-03-03T04:19:31.366Z,8.68
2019-03-03T04:24:52.393Z,8.57
2019-03-03T04:30:09.219Z,8.60
2019-03-03T04:35:34.452Z,8.55
2019-03-03T04:41:03.049Z,8.69
2019-03-03T04:46:25.917Z,8.66
2019-03-03T04:51:47.993Z,8.59
2019-03-03T04:57:00.303Z,8.55
2019-03-03T05:02:28.459Z,8.50
2019-03-03T05:07:54.231Z,8.38
2019-03-03T05:13:31.563Z,8.35
2019-03-03T05:19:00.556Z,8.35
2019-03-03T05:24:03.437Z,8.41
2019-03-03T05:29:06.631Z,8.39
2019-03-03T05:34:09.881Z,8.33
2019-03-03T05:39:13.166Z,8.31
2019-03-03T05:44:16.393Z,8.29
2019-03-03T05:49:19.549Z,8.23
2019-03-03T05:54:22.473Z,8.29
2019-03-03T05:59:26.076Z,8.32
2019-03-03T06:04:28.935Z,8.39
2019-03-03T06:09:31.842Z,8.37
2019-03-03T06:14:35.124Z,8.41
2019-03-03T06:19:38.670Z,8.41
2019-03-03T06:24:41.575Z,8.52
2019-03-03T06:29:44.780Z,8.47
2019-03-03T06:34:47.981Z,8.41
2019-03-03T06:39:51.489Z,8.44
2019-03-03T06:44:54.382Z,8.52
2019-03-03T06:49:57.217Z,8.53
2019-03-03T06:55:00.778Z,8.60
2019-03-03T07:00:05.108Z,8.47
2019-03-03T07:05:09.170Z,8.64
2019-03-03T07:10:12.846Z,8.55
2019-03-03T07:15:15.725Z,8.64
2019-03-03T07:20:19.387Z,8.69
2019-03-03T07:25:23.015Z,8.65
2019-03-03T07:30:26.628Z,8.63
2019-03-03T07:35:29.535Z,8.73
2019-03-03T07:40:32.481Z,8.71
2019-03-03T07:45:35.799Z,8.77
2019-03-03T07:50:38.947Z,8.85
2019-03-03T07:55:41.922Z,8.91
2019-03-03T08:00:45.423Z,8.95
2019-03-03T08:05:48.634Z,8.93
2019-03-03T08:10:51.820Z,9.01
2019-03-03T08:15:55.552Z,9.00
2019-03-03T08:20:58.778Z,8.99
2019-03-03T08:26:02.270Z,8.97
2019-03-03T08:31:05.211Z,9.03
2019-03-03T08:36:09.614Z,8.99
2019-03-03T08:41:13.162Z,8.96
2019-03-03T08:46:36.649Z,8.97
2019-03-03T08:51:50.300Z,8.88
2019-03-03T08:57:21.930Z,9.02
2019-03-03T09:02:32.461Z,8.98
2019-03-03T09:07:52.149Z,8.93
2019-03-03T09:13:07.139Z,8.93
2019-03-03T09:18:28.996Z,8.92
2019-03-03T09:24:07.213Z,9.03
2019-03-03T09:29:17.486Z,9.07
2019-03-03T09:34:38.618Z,9.03
2019-03-03T09:39:49.412Z,9.06
2019-03-03T09:45:20.068Z,9.25
2019-03-03T09:50:51.972Z,9.27
2019-03-03T09:56:13.377Z,9.43
2019-03-03T10:01:35.854Z,9.39
2019-03-03T10:07:02.179Z,9.56
2019-03-03T10:12:10.117Z,9.47
2019-03-03T10:17:24.794Z,9.78
2019-03-03T10:22:46.268Z,9.86
2019-03-03T10:27:57.952Z,10.13
2019-03-03T10:33:20.454Z,10.10
2019-03-03T10:38:41.746Z,9.99
2019-03-03T10:44:04.282Z,10.03
2019-03-03T10:49:23.171Z,10.00
2019-03-03T10:54:45.753Z,10.27
2019-03-03T11:00:20.695Z,10.13
2019-03-03T11:05:46.634Z,10.04
2019-03-03T11:11:18.951Z,10.14
2019-03-03T11:16:39.992Z,10.08
2019-03-03T11:22:05.308Z,9.97
2019-03-03T11:27:40.168Z,9.84
2019-03-03T11:33:00.780Z,9.79
2019-03-03T11:38:21.955Z,9.82
2019-03-03T11:43:47.025Z,9.76
2019-03-03T11:49:08.468Z,9.86
2019-03-03T11:54:19.957Z,10.05
2019-03-03T11:59:36.580Z,10.00
2019-03-03T12:05:02.051Z,10.06
2019-03-03T12:10:43.948Z,9.82
2019-03-03T12:16:04.549Z,9.87
2019-03-03T12:21:13.995Z,9.77
2019-03-03T12:26:29.811Z,9.88
2019-03-03T12:31:52.867Z,9.73
2019-03-03T12:37:23.959Z,9.77
2019-03-03T12:42:55.392Z,9.95
2019-03-03T12:48:15.740Z,9.79
2019-03-03T12:53:27.257Z,9.82
2019-03-03T12:58:44.012Z,9.80
2019-03-03T13:04:06.938Z,9.93
2019-03-03T13:09:35.160Z,9.80
2019-03-03T13:15:03.440Z,10.03
2019-03-03T13:20:22.830Z,10.00
2019-03-03T13:25:44.255Z,10.10
2019-03-03T13:30:59.660Z,9.81
2019-03-03T13:36:25.674Z,9.85
2019-03-03T13:41:51.542Z,9.86
2019-03-03T13:46:54.444Z,10.03
2019-03-03T13:51:58.312Z,10.04
2019-03-03T13:57:01.888Z,10.08
2019-03-03T14:02:05.860Z,10.27
2019-03-03T14:07:09.430Z,10.32
2019-03-03T14:12:12.615Z,10.68
2019-03-03T14:17:16.151Z,9.97
2019-03-03T14:22:19.345Z,9.69
2019-03-03T14:27:22.892Z,9.77
2019-03-03T14:32:26.657Z,9.45
2019-03-03T14:37:30.239Z,9.49
2019-03-03T14:42:33.310Z,9.54
2019-03-03T14:47:36.207Z,9.35
2019-03-03T14:52:39.141Z,9.26
2019-03-03T14:57:42.046Z,9.42
2019-03-03T15:02:44.975Z,9.40
2019-03-03T15:07:47.876Z,9.36
2019-03-03T15:12:50.765Z,9.32
2019-03-03T15:17:54.210Z,9.19
2019-03-03T15:22:57.703Z,9.23
2019-03-03T15:28:01.288Z,9.29
2019-03-03T15:33:04.864Z,9.19
2019-03-03T15:38:08.349Z,9.36
2019-03-03T15:43:11.988Z,9.40
2019-03-03T15:48:15.536Z,9.28
2019-03-03T15:53:19.364Z,9.05
2019-03-03T15:58:23.529Z,9.11
2019-03-03T16:03:26.967Z,8.88
2019-03-03T16:08:30.305Z,8.89
2019-03-03T16:13:34.044Z,8.96
2019-03-03T16:18:37.445Z,8.79
2019-03-03T16:23:41.120Z,8.85
2019-03-03T16:28:44.381Z,8.94
2019-03-03T16:33:47.673Z,8.81
2019-03-03T16:38:50.661Z,8.80
2019-03-03T16:43:54.532Z,8.56
2019-03-03T16:48:58.146Z,8.71
2019-03-03T16:54:01.313Z,8.60
2019-03-03T16:59:04.763Z,8.54
2019-03-03T17:04:08.519Z,8.60
2019-03-03T17:09:32.940Z,8.59
2019-03-03T17:14:36.668Z,8.54
2019-03-03T17:19:40.257Z,8.60
2019-03-03T17:24:43.691Z,8.64
2019-03-03T17:29:47.517Z,8.61
2019-03-03T17:34:50.864Z,8.66
2019-03-03T17:39:54.592Z,8.61
2019-03-03T17:44:59.148Z,8.62
2019-03-03T17:50:04.730Z,8.62
2019-03-03T17:55:09.939Z,8.61
2019-03-03T18:00:22.087Z,8.65
2019-03-03T18:05:29.752Z,8.49
2019-03-03T18:10:34.070Z,8.60
2019-03-03T18:15:41.330Z,8.61
2019-03-03T18:20:48.336Z,8.52
2019-03-03T18:25:56.412Z,8.50
2019-03-03T18:31:03.571Z,8.46
2019-03-03T18:36:10.662Z,8.50
2019-03-03T18:41:18.260Z,8.57
2019-03-03T18:46:25.387Z,8.49
2019-03-03T18:51:33.343Z,8.31
2019-03-03T18:56:40.538Z,8.37
2019-03-03T19:01:48.269Z,8.31
2019-03-03T19:06:54.881Z,9.63
2019-03-03T19:12:03.913Z,9.56
2019-03-03T19:17:12.537Z,8.77
2019-03-03T19:22:21.768Z,8.88
2019-03-03T19:27:32.429Z,8.92
2019-03-03T19:32:40.221Z,9.04
2019-03-03T19:37:47.617Z,9.21
2019-03-03T19:42:56.943Z,9.41
2019-03-03T19:48:05.269Z,9.53
2019-03-03T19:53:12.104Z,9.77
2019-03-03T19:58:20.094Z,9.85
2019-03-03T20:03:28.210Z,9.96
2019-03-03T20:08:37.223Z,10.00
2019-03-03T20:13:47.078Z,10.12
2019-03-03T20:18:55.020Z,10.16
2019-03-03T20:24:03.553Z,10.18
2019-03-03T20:29:10.807Z,10.26
2019-03-03T20:34:19.942Z,10.28
2019-03-03T20:39:29.036Z,10.35
2019-03-03T20:44:38.264Z,10.30
2019-03-03T20:49:46.110Z,10.30
2019-03-03T20:54:53.370Z,10.28
2019-03-03T20:59:59.954Z,10.32
2019-03-03T21:05:07.961Z,10.27
2019-03-03T21:10:16.512Z,10.30
2019-03-03T21:15:23.792Z,10.26
2019-03-03T21:20:29.870Z,10.27
2019-03-03T21:25:34.669Z,10.22
2019-03-03T21:30:38.904Z,10.19
2019-03-03T21:35:42.124Z,10.19
2019-03-03T21:40:46.676Z,10.21
2019-03-03T21:45:50.454Z,10.19
2019-03-03T21:50:54.098Z,10.20
2019-03-03T21:55:57.963Z,10.20
2019-03-03T22:01:01.598Z,10.23
2019-03-03T22:06:05.245Z,10.10
2019-03-03T22:11:08.081Z,10.14
2019-03-03T22:16:11.038Z,10.19
2019-03-03T22:21:14.389Z,10.15
2019-03-03T22:26:18.897Z,10.19
2019-03-03T22:31:21.886Z,10.21
2019-03-03T22:36:25.222Z,10.10
2019-03-03T22:41:28.749Z,10.14
2019-03-03T22:46:32.273Z,10.06
2019-03-03T22:51:35.914Z,9.96
2019-03-03T22:56:38.801Z,10.04
2019-03-03T23:01:44.477Z,9.99
2019-03-03T23:07:05.121Z,9.96
2019-03-03T23:12:47.218Z,9.94
2019-03-03T23:18:22.803Z,9.87
2019-03-03T23:24:08.488Z,9.81
2019-03-03T23:29:12.008Z,9.84
2019-03-03T23:34:16.024Z,9.73
2019-03-03T23:39:18.528Z,9.66
2019-03-03T23:44:21.268Z,9.69
2019-03-03T23:49:24.467Z,9.66
2019-03-03T23:54:28.043Z,9.69
2019-03-03T23:59:31.595Z,9.77
